createdAt,value
2022-10-01T00:02:21.642Z,13.40
2022-10-01T00:04:50.830Z,13.40
2022-10-01T00:07:18.503Z,13.40
2022-10-01T00:09:46.517Z,13.30
2022-10-01T00:12:15.856Z,13.40
2022-10-01T00:14:43.337Z,13.30
2022-10-01T00:17:13.897Z,13.30
2022-10-01T00:19:41.536Z,13.30
2022-10-01T00:22:08.616Z,13.30
2022-10-01T00:24:39.253Z,13.30
2022-10-01T00:27:06.537Z,13.40
2022-10-01T00:29:33.754Z,13.30
2022-10-01T00:32:02.101Z,13.30
2022-10-01T00:34:29.320Z,13.30
2022-10-01T00:36:56.957Z,13.30
2022-10-01T00:39:24.371Z,13.30
2022-10-01T00:41:54.855Z,13.30
2022-10-01T00:44:35.225Z,13.30
2022-10-01T00:47:31.796Z,13.30
2022-10-01T00:50:26.907Z,13.30
2022-10-01T00:52:59.728Z,13.30
2022-10-01T00:55:34.087Z,13.20
2022-10-01T00:58:06.812Z,13.20
2022-10-01T01:00:35.590Z,13.30
2022-10-01T01:03:04.074Z,13.30
2022-10-01T01:05:37.593Z,13.30
2022-10-01T01:08:05.854Z,13.30
2022-10-01T01:11:14.382Z,13.30
2022-10-01T01:14:03.446Z,13.20
2022-10-01T01:16:55.190Z,13.30
2022-10-01T01:19:41.080Z,13.30
2022-10-01T01:22:13.500Z,13.30
2022-10-01T01:25:19.514Z,13.30
2022-10-01T01:28:02.098Z,13.30
2022-10-01T01:30:34.034Z,13.30
2022-10-01T01:33:17.707Z,13.30
2022-10-01T01:35:57.596Z,13.30
2022-10-01T01:38:38.478Z,13.30
2022-10-01T01:41:07.967Z,13.30
2022-10-01T01:43:41.879Z,13.30
2022-10-01T01:46:12.532Z,13.30
2022-10-01T01:48:41.963Z,13.30
2022-10-01T01:51:12.951Z,13.30
2022-10-01T01:53:40.795Z,13.30
2022-10-01T01:56:08.513Z,13.30
2022-10-01T01:58:41.806Z,13.30
2022-10-01T02:01:42.490Z,13.30
2022-10-01T02:04:13.151Z,13.30
2022-10-01T02:07:18.230Z,13.30
2022-10-01T02:10:25.745Z,13.30
2022-10-01T02:13:14.468Z,13.30
2022-10-01T02:16:08.233Z,13.30
2022-10-01T02:19:08.275Z,13.30
2022-10-01T02:21:46.454Z,13.30
2022-10-01T02:25:12.987Z,13.30
2022-10-01T02:28:15.810Z,13.30
2022-10-01T02:30:46.722Z,13.30
2022-10-01T02:33:18.116Z,13.40
2022-10-01T02:35:48.159Z,13.40
2022-10-01T02:38:18.104Z,13.40
2022-10-01T02:40:48.150Z,13.40
2022-10-01T02:43:26.601Z,13.40
2022-10-01T02:46:00.637Z,13.40
2022-10-01T02:48:28.909Z,13.40
2022-10-01T02:51:13.620Z,13.40
2022-10-01T02:53:51.144Z,13.40
2022-10-01T02:56:48.200Z,13.40
2022-10-01T02:59:15.907Z,13.40
2022-10-01T03:01:43.502Z,13.40
2022-10-01T03:04:10.561Z,13.50
2022-10-01T03:06:37.857Z,13.40
2022-10-01T03:09:05.041Z,13.40
2022-10-01T03:11:32.347Z,13.40
2022-10-01T03:14:01.020Z,13.40
2022-10-01T03:16:28.077Z,13.40
2022-10-01T03:18:55.269Z,13.40
2022-10-01T03:21:22.365Z,13.40
2022-10-01T03:23:49.743Z,13.40
2022-10-01T03:26:16.911Z,13.30
2022-10-01T03:28:47.607Z,13.30
2022-10-01T03:31:18.238Z,13.30
2022-10-01T03:33:45.307Z,13.30
2022-10-01T03:36:12.488Z,13.30
2022-10-01T03:38:39.517Z,13.30
2022-10-01T03:41:06.680Z,13.30
2022-10-01T03:43:34.237Z,13.30
2022-10-01T03:46:01.985Z,13.30
2022-10-01T03:48:30.197Z,13.30
2022-10-01T03:51:00.647Z,13.30
2022-10-01T03:53:28.525Z,13.20
2022-10-01T03:55:56.121Z,13.30
2022-10-01T03:58:23.522Z,13.30
2022-10-01T04:00:51.615Z,13.30
2022-10-01T04:03:18.995Z,13.30
2022-10-01T04:05:46.638Z,13.30
2022-10-01T04:08:15.080Z,13.30
2022-10-01T04:10:42.868Z,13.30
2022-10-01T04:13:10.394Z,13.30
2022-10-01T04:15:37.780Z,13.30
2022-10-01T04:18:06.241Z,13.30
2022-10-01T04:20:38.181Z,13.20
2022-10-01T04:23:05.788Z,13.30
2022-10-01T04:25:33.253Z,13.20
2022-10-01T04:28:03.954Z,13.20
2022-10-01T04:30:37.628Z,13.20
2022-10-01T04:33:06.249Z,13.20
2022-10-01T04:35:34.561Z,13.20
2022-10-01T04:38:07.965Z,13.20
2022-10-01T04:40:36.638Z,13.20
2022-10-01T04:43:05.981Z,13.20
2022-10-01T04:45:33.013Z,13.20
2022-10-01T04:48:00.182Z,13.20
2022-10-01T04:50:27.648Z,13.20
2022-10-01T04:52:55.584Z,13.20
2022-10-01T04:55:23.845Z,13.30
2022-10-01T04:57:51.398Z,13.30
2022-10-01T05:00:24.402Z,13.30
2022-10-01T05:02:52.559Z,13.30
2022-10-01T05:05:23.367Z,13.30
2022-10-01T05:07:51.046Z,13.30
2022-10-01T05:10:22.001Z,13.30
2022-10-01T05:12:49.700Z,13.30
2022-10-01T05:15:18.112Z,13.30
2022-10-01T05:17:46.506Z,13.30
2022-10-01T05:20:23.566Z,13.40
2022-10-01T05:22:54.750Z,13.40
2022-10-01T05:25:22.564Z,13.40
2022-10-01T05:27:52.740Z,13.40
2022-10-01T05:30:26.046Z,13.40
2022-10-01T05:32:59.313Z,13.40
2022-10-01T05:35:30.570Z,13.40
2022-10-01T05:38:03.030Z,13.40
2022-10-01T05:40:30.895Z,13.40
2022-10-01T05:43:00.200Z,13.40
2022-10-01T05:45:29.175Z,13.40
2022-10-01T05:48:08.242Z,13.40
2022-10-01T05:50:40.273Z,13.40
2022-10-01T05:53:09.982Z,13.40
2022-10-01T05:55:37.638Z,13.40
2022-10-01T05:58:11.273Z,13.50
2022-10-01T06:00:43.528Z,13.40
2022-10-01T06:03:13.132Z,13.40
2022-10-01T06:05:40.458Z,13.50
2022-10-01T06:08:09.843Z,13.50
2022-10-01T06:10:38.518Z,13.50
2022-10-01T06:13:06.595Z,13.50
2022-10-01T06:15:38.903Z,13.60
2022-10-01T06:18:14.491Z,13.60
2022-10-01T06:20:41.953Z,13.60
2022-10-01T06:23:12.571Z,13.60
2022-10-01T06:25:43.797Z,13.70
2022-10-01T06:28:14.026Z,13.70
2022-10-01T06:30:41.410Z,13.80
2022-10-01T06:33:12.752Z,13.80
2022-10-01T06:35:52.386Z,13.80
2022-10-01T06:38:22.224Z,13.80
2022-10-01T06:41:00.434Z,13.90
2022-10-01T06:43:30.008Z,13.90
2022-10-01T06:46:01.128Z,13.90
2022-10-01T06:48:31.437Z,13.90
2022-10-01T06:50:59.201Z,14.00
2022-10-01T06:53:28.306Z,13.90
2022-10-01T06:55:55.736Z,13.90
2022-10-01T06:58:28.355Z,14.00
2022-10-01T07:01:01.426Z,14.00
2022-10-01T07:03:29.076Z,14.00
2022-10-01T07:06:05.284Z,14.00
2022-10-01T07:08:35.324Z,14.00
2022-10-01T07:11:03.403Z,14.10
2022-10-01T07:13:34.040Z,14.10
2022-10-01T07:16:04.911Z,14.10
2022-10-01T07:18:31.983Z,14.20
2022-10-01T07:20:59.232Z,14.20
2022-10-01T07:23:26.350Z,14.20
2022-10-01T07:25:59.787Z,14.30
2022-10-01T07:28:28.252Z,14.40
2022-10-01T07:31:11.340Z,14.40
2022-10-01T07:33:41.960Z,14.40
2022-10-01T07:36:13.677Z,14.40
2022-10-01T07:38:43.531Z,14.40
2022-10-01T07:41:13.793Z,14.50
2022-10-01T07:43:42.359Z,14.50
2022-10-01T07:46:10.538Z,14.50
2022-10-01T07:48:37.792Z,14.50
2022-10-01T07:51:05.054Z,14.50
2022-10-01T07:53:32.155Z,14.50
2022-10-01T07:56:02.234Z,14.50
2022-10-01T07:58:29.460Z,14.50
2022-10-01T08:00:58.853Z,14.60
2022-10-01T08:03:26.382Z,14.60
2022-10-01T08:05:54.310Z,14.60
2022-10-01T08:08:24.480Z,14.60
2022-10-01T08:10:54.937Z,14.70
2022-10-01T08:13:24.929Z,14.70
2022-10-01T08:15:55.713Z,14.70
2022-10-01T08:18:23.601Z,14.80
2022-10-01T08:20:51.274Z,14.80
2022-10-01T08:23:21.902Z,14.80
2022-10-01T08:25:49.046Z,14.80
2022-10-01T08:28:16.497Z,14.90
2022-10-01T08:30:46.970Z,14.90
2022-10-01T08:33:14.606Z,14.90
2022-10-01T08:35:43.714Z,14.90
2022-10-01T08:38:12.132Z,14.90
2022-10-01T08:41:00.793Z,14.90
2022-10-01T08:43:38.811Z,14.90
2022-10-01T08:46:18.309Z,14.90
2022-10-01T08:49:28.007Z,15.00
2022-10-01T08:52:01.302Z,15.00
2022-10-01T08:54:42.630Z,15.10
2022-10-01T08:57:21.173Z,15.20
2022-10-01T08:59:59.583Z,15.20
2022-10-01T09:02:28.228Z,15.20
2022-10-01T09:05:06.862Z,15.20
2022-10-01T09:07:46.915Z,15.20
2022-10-01T09:10:24.891Z,15.20
2022-10-01T09:13:33.597Z,15.20
2022-10-01T09:16:35.397Z,15.20
2022-10-01T09:20:04.535Z,15.20
2022-10-01T09:22:44.494Z,15.30
2022-10-01T09:25:25.640Z,15.30
2022-10-01T09:28:07.330Z,15.30
2022-10-01T09:30:37.643Z,15.30
2022-10-01T09:33:22.106Z,15.40
2022-10-01T09:36:23.115Z,15.40
2022-10-01T09:39:26.796Z,15.40
2022-10-01T09:41:54.058Z,15.50
2022-10-01T09:44:31.164Z,15.50
2022-10-01T09:46:58.601Z,15.50
2022-10-01T09:49:39.654Z,15.50
2022-10-01T09:52:39.883Z,15.60
2022-10-01T09:55:22.812Z,15.60
2022-10-01T09:58:14.981Z,15.60
2022-10-01T10:00:43.586Z,15.60
2022-10-01T10:03:22.115Z,15.60
2022-10-01T10:05:50.030Z,15.60
2022-10-01T10:08:45.541Z,15.60
2022-10-01T10:11:29.230Z,15.60
2022-10-01T10:14:00.962Z,15.60
2022-10-01T10:16:35.575Z,15.60
2022-10-01T10:19:28.128Z,15.60
2022-10-01T10:22:26.742Z,15.70
2022-10-01T10:24:58.990Z,15.70
2022-10-01T10:27:30.196Z,15.70
2022-10-01T10:30:17.712Z,15.70
2022-10-01T10:32:48.489Z,15.80
2022-10-01T10:35:25.740Z,15.80
2022-10-01T10:37:57.763Z,15.80
2022-10-01T10:40:41.863Z,15.90
2022-10-01T10:43:25.720Z,15.90
2022-10-01T10:45:56.918Z,16.00
2022-10-01T10:48:35.416Z,16.00
2022-10-01T10:51:05.460Z,16.10
2022-10-01T10:53:46.188Z,16.10
2022-10-01T10:56:25.417Z,16.20
2022-10-01T10:58:53.858Z,16.30
2022-10-01T11:01:30.875Z,16.30
2022-10-01T11:04:01.000Z,16.40
2022-10-01T11:06:31.521Z,16.40
2022-10-01T11:09:10.410Z,16.40
2022-10-01T11:12:22.318Z,16.50
2022-10-01T11:15:03.285Z,16.50
2022-10-01T11:18:04.294Z,16.60
2022-10-01T11:21:02.450Z,16.60
2022-10-01T11:23:52.399Z,16.60
2022-10-01T11:26:41.555Z,16.70
2022-10-01T11:29:29.897Z,16.70
2022-10-01T11:32:12.087Z,16.70
2022-10-01T11:35:06.437Z,16.80
2022-10-01T11:38:20.897Z,16.90
2022-10-01T11:40:59.712Z,16.90
2022-10-01T11:43:51.207Z,17.00
2022-10-01T11:46:54.374Z,17.10
2022-10-01T11:50:14.973Z,17.20
2022-10-01T11:52:59.123Z,17.30
2022-10-01T11:56:04.232Z,17.30
2022-10-01T11:59:22.704Z,17.30
2022-10-01T12:02:15.244Z,17.20
2022-10-01T12:04:58.608Z,17.20
2022-10-01T12:07:54.171Z,17.30
2022-10-01T12:10:28.673Z,17.20
2022-10-01T12:13:24.767Z,17.20
2022-10-01T12:16:06.028Z,17.20
2022-10-01T12:18:39.129Z,17.20
2022-10-01T12:21:27.778Z,17.20
2022-10-01T12:24:27.291Z,17.30
2022-10-01T12:27:48.084Z,17.30
2022-10-01T12:30:20.561Z,17.30
2022-10-01T12:33:41.557Z,17.40
2022-10-01T12:36:31.867Z,17.40
2022-10-01T12:39:50.399Z,17.30
2022-10-01T12:42:45.578Z,17.30
2022-10-01T12:45:57.751Z,17.40
2022-10-01T12:48:47.604Z,17.40
2022-10-01T12:51:52.482Z,17.40
2022-10-01T12:54:49.414Z,17.30
2022-10-01T12:57:26.349Z,17.30
2022-10-01T13:00:05.690Z,17.30
2022-10-01T13:02:45.313Z,17.30
2022-10-01T13:05:27.808Z,17.20
2022-10-01T13:08:16.147Z,17.30
2022-10-01T13:11:06.788Z,17.30
2022-10-01T13:13:34.772Z,17.30
2022-10-01T13:16:24.613Z,17.30
2022-10-01T13:19:24.970Z,17.30
2022-10-01T13:22:14.480Z,17.30
2022-10-01T13:25:00.895Z,17.40
2022-10-01T13:27:46.538Z,17.40
2022-10-01T13:30:24.702Z,17.40
2022-10-01T13:33:01.117Z,17.50
2022-10-01T13:35:41.278Z,17.50
2022-10-01T13:38:36.924Z,17.40
2022-10-01T13:41:24.257Z,17.40
2022-10-01T13:44:18.519Z,17.40
2022-10-01T13:47:02.266Z,17.40
2022-10-01T13:49:37.040Z,17.30
2022-10-01T13:52:06.156Z,17.30
2022-10-01T13:54:52.419Z,17.30
2022-10-01T13:57:39.642Z,17.20
2022-10-01T14:00:13.047Z,17.20
2022-10-01T14:02:45.238Z,17.20
2022-10-01T14:05:18.207Z,17.20
2022-10-01T14:07:50.311Z,17.20
2022-10-01T14:10:19.335Z,17.20
2022-10-01T14:13:06.734Z,17.20
2022-10-01T14:16:00.702Z,17.10
2022-10-01T14:18:37.996Z,17.10
2022-10-01T14:22:12.407Z,17.10
2022-10-01T14:25:23.588Z,17.00
2022-10-01T14:28:15.066Z,17.00
2022-10-01T14:31:14.298Z,17.00
2022-10-01T14:34:03.130Z,16.90
2022-10-01T14:36:48.357Z,16.80
2022-10-01T14:39:25.434Z,16.70
2022-10-01T14:41:55.239Z,16.70
2022-10-01T14:44:38.301Z,16.60
2022-10-01T14:47:25.883Z,16.60
2022-10-01T14:49:54.866Z,16.60
2022-10-01T14:52:26.873Z,16.50
2022-10-01T14:54:56.902Z,16.50
2022-10-01T14:57:45.561Z,16.50
2022-10-01T15:00:33.489Z,16.40
2022-10-01T15:03:15.211Z,16.30
2022-10-01T15:05:43.555Z,16.30
2022-10-01T15:08:33.165Z,16.30
2022-10-01T15:11:13.653Z,16.30
2022-10-01T15:13:47.168Z,16.30
2022-10-01T15:16:23.246Z,16.30
2022-10-01T15:18:56.035Z,16.20
2022-10-01T15:21:56.575Z,16.20
2022-10-01T15:24:47.295Z,16.10
2022-10-01T15:27:19.711Z,16.00
2022-10-01T15:29:56.343Z,16.00
2022-10-01T15:32:26.217Z,16.00
2022-10-01T15:34:58.116Z,16.00
2022-10-01T15:37:35.847Z,15.90
2022-10-01T15:40:20.925Z,15.90
2022-10-01T15:43:22.897Z,15.90
2022-10-01T15:46:22.408Z,15.80
2022-10-01T15:49:11.928Z,15.80
2022-10-01T15:52:18.733Z,15.80
2022-10-01T15:54:47.474Z,15.80
2022-10-01T15:57:21.933Z,15.80
2022-10-01T15:59:53.321Z,15.70
2022-10-01T16:02:29.842Z,15.70
2022-10-01T16:05:06.365Z,15.70
2022-10-01T16:07:35.414Z,15.60
2022-10-01T16:10:15.000Z,15.60
2022-10-01T16:12:42.474Z,15.60
2022-10-01T16:15:27.788Z,15.60
2022-10-01T16:18:04.993Z,15.60
2022-10-01T16:20:46.606Z,15.60
2022-10-01T16:23:45.232Z,15.60
2022-10-01T16:26:27.444Z,15.60
2022-10-01T16:29:06.183Z,15.60
2022-10-01T16:31:45.337Z,15.60
2022-10-01T16:34:18.539Z,15.50
2022-10-01T16:36:46.601Z,15.50
2022-10-01T16:39:15.211Z,15.50
2022-10-01T16:41:56.521Z,15.40
2022-10-01T16:44:28.794Z,15.40
2022-10-01T16:46:59.219Z,15.40
2022-10-01T16:49:26.757Z,15.40
2022-10-01T16:51:55.484Z,15.30
2022-10-01T16:54:26.859Z,15.30
2022-10-01T16:56:55.391Z,15.30
2022-10-01T16:59:23.918Z,15.20
2022-10-01T17:01:57.500Z,15.20
2022-10-01T17:04:33.633Z,15.20
2022-10-01T17:07:01.406Z,15.20
2022-10-01T17:09:28.518Z,15.20
2022-10-01T17:11:55.762Z,15.20
2022-10-01T17:14:23.279Z,15.20
2022-10-01T17:16:50.920Z,15.20
2022-10-01T17:19:18.582Z,15.20
2022-10-01T17:21:46.582Z,15.20
2022-10-01T17:24:14.180Z,15.10
2022-10-01T17:26:45.357Z,15.20
2022-10-01T17:29:12.927Z,15.20
2022-10-01T17:31:44.697Z,15.10
2022-10-01T17:34:12.070Z,15.10
2022-10-01T17:36:39.891Z,15.10
2022-10-01T17:39:07.120Z,15.10
2022-10-01T17:41:37.605Z,15.10
2022-10-01T17:44:04.736Z,15.10
2022-10-01T17:46:32.042Z,15.10
2022-10-01T17:48:59.333Z,15.10
2022-10-01T17:51:27.037Z,15.10
2022-10-01T17:53:55.039Z,15.10
2022-10-01T17:56:22.723Z,15.00
2022-10-01T17:58:49.790Z,15.00
2022-10-01T18:01:22.011Z,14.90
2022-10-01T18:03:57.686Z,14.80
2022-10-01T18:06:29.568Z,14.80
2022-10-01T18:09:00.097Z,14.80
2022-10-01T18:11:30.847Z,14.80
2022-10-01T18:13:58.853Z,14.70
2022-10-01T18:16:27.057Z,14.70
2022-10-01T18:21:44.459Z,14.70
2022-10-01T18:24:11.588Z,14.60
2022-10-01T18:26:42.502Z,14.60
2022-10-01T18:29:22.540Z,14.60
2022-10-01T18:32:00.717Z,14.50
2022-10-01T18:34:44.845Z,14.50
2022-10-01T18:37:46.775Z,14.50
2022-10-01T18:40:33.565Z,14.50
2022-10-01T18:43:24.885Z,14.40
2022-10-01T18:46:32.105Z,14.40
2022-10-01T18:49:29.783Z,14.40
2022-10-01T18:52:23.017Z,14.40
2022-10-01T18:54:59.485Z,14.40
2022-10-01T18:57:54.964Z,14.40
2022-10-01T19:00:28.620Z,14.30
2022-10-01T19:03:29.890Z,14.40
2022-10-01T19:06:22.294Z,14.30
2022-10-01T19:09:19.441Z,14.30
2022-10-01T19:12:12.893Z,14.30
2022-10-01T19:15:14.453Z,14.30
2022-10-01T19:17:55.024Z,14.30
2022-10-01T19:20:31.180Z,14.30
2022-10-01T19:23:42.176Z,14.30
2022-10-01T19:26:36.226Z,14.30
2022-10-01T19:29:35.670Z,14.30
2022-10-01T19:32:25.756Z,14.40
2022-10-01T19:35:21.348Z,14.40
2022-10-01T19:37:56.886Z,14.40
2022-10-01T19:40:55.560Z,14.40
2022-10-01T19:44:02.251Z,14.50
2022-10-01T19:46:43.920Z,14.50
2022-10-01T19:49:31.671Z,14.50
2022-10-01T19:52:11.719Z,14.50
2022-10-01T19:55:00.325Z,14.50
2022-10-01T19:57:39.009Z,14.50
2022-10-01T20:00:12.867Z,14.50
2022-10-01T20:02:45.863Z,14.40
2022-10-01T20:05:28.490Z,14.50
2022-10-01T20:08:29.022Z,14.50
2022-10-01T20:11:14.693Z,14.40
2022-10-01T20:14:39.446Z,14.40
2022-10-01T20:17:34.148Z,14.40
2022-10-01T20:20:29.513Z,14.40
2022-10-01T20:23:11.279Z,14.40
2022-10-01T20:25:52.919Z,14.40
2022-10-01T20:28:28.842Z,14.40
2022-10-01T20:31:07.830Z,14.50
2022-10-01T20:34:19.326Z,14.40
2022-10-01T20:37:34.942Z,14.40
2022-10-01T20:40:25.125Z,14.40
2022-10-01T20:43:30.668Z,14.40
2022-10-01T20:46:03.973Z,14.40
2022-10-01T20:48:40.703Z,14.40
2022-10-01T20:51:58.620Z,14.40
2022-10-01T20:54:35.496Z,14.40
2022-10-01T20:57:21.245Z,14.30
2022-10-01T20:59:56.675Z,14.40
2022-10-01T21:02:47.731Z,14.40
2022-10-01T21:05:28.702Z,14.40
2022-10-01T21:08:04.494Z,14.40
2022-10-01T21:10:45.048Z,14.40
2022-10-01T21:13:29.694Z,14.40
2022-10-01T21:16:50.434Z,14.40
2022-10-01T21:19:39.081Z,14.40
2022-10-01T21:22:38.036Z,14.50
2022-10-01T21:25:35.812Z,14.60
2022-10-01T21:28:13.186Z,14.70
2022-10-01T21:31:15.997Z,14.70
2022-10-01T21:34:02.097Z,14.70
2022-10-01T21:36:44.689Z,14.70
2022-10-01T21:39:46.573Z,14.70
2022-10-01T21:42:57.801Z,14.60
2022-10-01T21:46:04.459Z,14.60
2022-10-01T21:49:17.037Z,14.60
2022-10-01T21:51:53.661Z,14.60
2022-10-01T21:54:54.216Z,14.60
2022-10-01T21:58:01.480Z,14.70
2022-10-01T22:00:30.668Z,14.70
2022-10-01T22:03:18.127Z,14.70
2022-10-01T22:06:07.559Z,14.80
2022-10-01T22:08:56.137Z,14.80
2022-10-01T22:11:28.933Z,14.90
2022-10-01T22:14:03.506Z,14.90
2022-10-01T22:16:55.926Z,14.90
2022-10-01T22:19:33.568Z,14.90
2022-10-01T22:22:15.715Z,14.80
2022-10-01T22:24:50.131Z,14.90
2022-10-01T22:27:32.015Z,14.90
2022-10-01T22:30:12.891Z,14.90
2022-10-01T22:32:56.553Z,14.80
2022-10-01T22:35:41.201Z,14.80
2022-10-01T22:38:25.643Z,14.80
2022-10-01T22:41:23.821Z,14.80
2022-10-01T22:43:50.887Z,14.80
2022-10-01T22:47:02.766Z,14.80
2022-10-01T22:49:57.715Z,14.80
2022-10-01T22:52:55.554Z,14.80
2022-10-01T22:55:55.367Z,14.70
2022-10-01T22:58:43.330Z,14.70
2022-10-01T23:01:54.326Z,14.70
2022-10-01T23:04:38.022Z,14.70
2022-10-01T23:07:28.975Z,14.70
2022-10-01T23:10:01.995Z,14.70
2022-10-01T23:13:28.752Z,14.70
2022-10-01T23:16:27.964Z,14.70
2022-10-01T23:19:15.990Z,14.70
2022-10-01T23:22:08.903Z,14.70
2022-10-01T23:25:04.126Z,14.70
2022-10-01T23:27:54.723Z,14.70
2022-10-01T23:30:22.911Z,14.70
2022-10-01T23:33:10.852Z,14.70
2022-10-01T23:35:52.391Z,14.70
2022-10-01T23:38:31.958Z,14.70
2022-10-01T23:41:12.324Z,14.70
2022-10-01T23:43:48.637Z,14.80
2022-10-01T23:46:27.371Z,14.80
2022-10-01T23:49:12.654Z,14.80
2022-10-01T23:52:16.860Z,14.80
2022-10-01T23:55:18.961Z,14.80
2022-10-01T23:57:51.449Z,14.80
